Accueil
METAR-TAF:

METAR-TAF

Aéroports :

Bruxelles, Belgique

Aéroport de Bruxelles. Zaventem

latitude: 50-54N, longitude: 004-32E, altitude: 55 m

Observation

Le bulletin a été fait il y a 30 minutes, à 08:20 UTC
Vent 8 kt de ouest/nord-ouest
Température 18°C
Humidité 68%
Pression 1018 hPa
Visibilité 10 km ou plus
pas de nuages en-dessous de 1500 mètres et pas de cumulonimbus.

METAR: EBBR 230820Z 29008KT CAVOK 18/12 Q1018 NOSIG

Heure: 10:50 (08:50 UTC)

Prévision

Le bulletin a été fait il y a 3 heures et 40 minutes, à 05:10 UTC
Prévision valable du 23 à 06 UTC au 24 à 12 UTC
Vent 9 kt de ouest
Visibilité 10 km ou plus
pas de nuages en-dessous de 1500 mètres et pas de cumulonimbus.
Evoluant progressivement
du 23 à 13 UTC au 23 à 15 UTC
Vent 12 kt de nord/nord-ouest
Evoluant progressivement
du 23 à 22 UTC au 23 à 24 UTC
Vent 3 kt de sud

TAF: EBBR 230510Z 2306/2412 27009KT CAVOK BECMG 2313/2315 33012KT BECMG 2322/2324 19003KT

Observations et prévisions météorologiques de plus de 4000 aéroports (messages METAR et TAF).

Les stations disponibles sont représentées par des disques jaunes et rouges sur la carte.

Passer la souris dessus pour voir le nom de la station.

Cliquer dessus pour voir les observations et prévisions météorologiques.

Pour changer de carte: cliquez sur les boutons verts avec une croix noire pour zoomer, sur le bouton vert avec un tiret pour effectuer un zoom arrière, ou sur les flèches vertes pour les cartes adjacentes.


METAR-TAF: